createdAt,value
2023-04-16T00:02:42.480Z,14.17
2023-04-16T00:05:29.256Z,13.40
2023-04-16T00:08:15.825Z,14.97
2023-04-16T00:11:02.198Z,12.00
2023-04-16T00:13:48.555Z,17.33
2023-04-16T00:16:34.838Z,13.43
2023-04-16T00:19:21.022Z,16.00
2023-04-16T00:22:07.567Z,13.07
2023-04-16T00:24:54.198Z,14.07
2023-04-16T00:27:40.342Z,14.13
2023-04-16T00:30:26.714Z,15.67
2023-04-16T00:33:12.940Z,13.30
2023-04-16T00:35:59.709Z,13.73
2023-04-16T00:38:46.167Z,15.20
2023-04-16T00:41:33.873Z,15.20
2023-04-16T00:44:20.021Z,14.63
2023-04-16T00:47:07.603Z,12.57
2023-04-16T00:49:54.500Z,13.43
2023-04-16T00:52:40.882Z,13.40
2023-04-16T00:55:27.350Z,13.27
2023-04-16T00:58:13.855Z,13.10
2023-04-16T01:01:01.596Z,13.80
2023-04-16T01:03:49.368Z,11.47
2023-04-16T01:06:36.273Z,11.33
2023-04-16T01:09:22.367Z,11.90
2023-04-16T01:12:08.707Z,12.57
2023-04-16T01:14:55.562Z,10.40
2023-04-16T01:17:42.038Z,11.97
2023-04-16T01:20:29.711Z,12.43
2023-04-16T01:23:18.445Z,10.10
2023-04-16T01:26:05.048Z,9.20
2023-04-16T01:28:51.132Z,9.53
2023-04-16T01:31:37.451Z,9.77
2023-04-16T01:34:43.724Z,11.43
2023-04-16T01:37:30.988Z,11.80
2023-04-16T01:40:18.530Z,11.63
2023-04-16T01:43:05.105Z,13.07
2023-04-16T01:45:54.031Z,12.20
2023-04-16T01:48:40.373Z,14.43
2023-04-16T01:51:27.363Z,10.37
2023-04-16T01:54:13.824Z,13.47
2023-04-16T01:57:01.693Z,14.07
2023-04-16T01:59:48.303Z,16.30
2023-04-16T02:02:36.314Z,15.80
2023-04-16T02:05:23.332Z,14.30
2023-04-16T02:08:09.778Z,14.83
2023-04-16T02:10:56.919Z,15.57
2023-04-16T02:13:44.023Z,17.07
2023-04-16T02:16:31.143Z,14.93
2023-04-16T02:19:40.374Z,15.57
2023-04-16T02:22:28.142Z,16.23
2023-04-16T02:25:14.861Z,15.87
2023-04-16T02:28:03.410Z,17.60
2023-04-16T02:30:55.074Z,17.00
2023-04-16T02:33:41.739Z,15.73
2023-04-16T02:36:28.053Z,14.87
2023-04-16T02:39:15.431Z,16.20
2023-04-16T02:42:02.647Z,18.23
2023-04-16T02:44:49.375Z,18.00
2023-04-16T02:47:36.118Z,15.57
2023-04-16T02:50:22.601Z,19.60
2023-04-16T02:53:10.665Z,19.00
2023-04-16T02:55:57.195Z,20.57
2023-04-16T02:58:43.502Z,20.33
2023-04-16T03:01:30.221Z,20.00
2023-04-16T03:04:16.963Z,18.17
2023-04-16T03:07:03.224Z,16.57
2023-04-16T03:09:49.464Z,19.77
2023-04-16T03:12:36.286Z,17.93
2023-04-16T03:15:27.204Z,17.37
2023-04-16T03:18:13.733Z,20.23
2023-04-16T03:20:59.949Z,15.80
2023-04-16T03:23:46.466Z,13.77
2023-04-16T03:26:33.057Z,17.93
2023-04-16T03:29:19.618Z,18.97
2023-04-16T03:32:07.418Z,18.23
2023-04-16T03:34:53.968Z,15.13
2023-04-16T03:37:40.771Z,16.60
2023-04-16T03:40:27.411Z,14.80
2023-04-16T03:43:14.379Z,20.07
2023-04-16T03:46:00.549Z,17.73
2023-04-16T03:48:47.082Z,17.73
2023-04-16T03:51:33.519Z,16.13
2023-04-16T03:54:22.452Z,16.97
2023-04-16T03:57:15.066Z,16.23
2023-04-16T04:00:01.946Z,16.10
2023-04-16T04:03:00.632Z,15.27
2023-04-16T04:05:47.117Z,22.07
2023-04-16T04:08:36.718Z,16.10
2023-04-16T04:11:24.360Z,15.03
2023-04-16T04:14:13.482Z,19.00
2023-04-16T04:16:59.700Z,19.17
2023-04-16T04:19:58.091Z,18.20
2023-04-16T04:22:48.022Z,19.70
2023-04-16T04:25:35.310Z,15.37
2023-04-16T04:28:21.654Z,19.50
2023-04-16T04:31:07.960Z,17.40
2023-04-16T04:33:54.176Z,17.50
2023-04-16T04:36:41.033Z,19.90
2023-04-16T04:39:27.212Z,14.93
2023-04-16T04:42:14.255Z,20.80
2023-04-16T04:45:00.960Z,20.60
2023-04-16T04:47:50.101Z,20.23
2023-04-16T04:50:37.012Z,20.43
2023-04-16T04:53:24.110Z,22.07
2023-04-16T04:56:12.801Z,22.77
2023-04-16T04:59:00.161Z,26.47
2023-04-16T05:01:46.417Z,25.70
2023-04-16T05:04:32.888Z,26.60
2023-04-16T05:07:19.358Z,24.87
2023-04-16T05:10:06.579Z,28.00
2023-04-16T05:12:52.961Z,24.20
2023-04-16T05:15:39.343Z,32.93
2023-04-16T05:18:25.563Z,25.67
2023-04-16T05:21:11.882Z,27.43
2023-04-16T05:23:58.874Z,27.13
2023-04-16T05:26:45.138Z,25.23
2023-04-16T05:29:31.472Z,28.63
2023-04-16T05:32:17.793Z,27.30
2023-04-16T05:35:04.684Z,26.00
2023-04-16T05:37:50.936Z,24.57
2023-04-16T05:40:37.365Z,26.17
2023-04-16T05:43:23.817Z,25.57
2023-04-16T05:46:10.159Z,25.27
2023-04-16T05:48:56.516Z,29.83
2023-04-16T05:51:42.856Z,27.00
2023-04-16T05:54:29.222Z,22.83
2023-04-16T05:57:15.693Z,33.73
2023-04-16T06:00:02.408Z,30.90
2023-04-16T06:02:58.374Z,38.20
2023-04-16T06:05:45.137Z,34.43
2023-04-16T06:08:31.374Z,31.47
2023-04-16T06:11:17.863Z,27.47
2023-04-16T06:14:04.088Z,32.90
2023-04-16T06:16:50.289Z,27.60
2023-04-16T06:19:36.723Z,23.07
2023-04-16T06:22:24.343Z,24.07
2023-04-16T06:25:10.547Z,28.90
2023-04-16T06:27:56.723Z,25.97
2023-04-16T06:30:44.521Z,25.30
2023-04-16T06:33:31.108Z,26.37
2023-04-16T06:36:17.277Z,24.90
2023-04-16T06:39:03.403Z,22.73
2023-04-16T06:41:49.744Z,22.33
2023-04-16T06:44:37.346Z,19.87
2023-04-16T06:47:23.833Z,22.20
2023-04-16T06:50:10.293Z,19.23
2023-04-16T06:52:57.172Z,20.43
2023-04-16T06:55:43.585Z,19.60
2023-04-16T06:58:29.998Z,19.90
2023-04-16T07:01:17.701Z,19.87
2023-04-16T07:04:04.418Z,19.33
2023-04-16T07:06:51.013Z,17.20
2023-04-16T07:09:40.132Z,14.90
2023-04-16T07:12:27.182Z,19.90
2023-04-16T07:15:13.578Z,20.77
2023-04-16T07:18:00.182Z,14.30
2023-04-16T07:20:47.522Z,19.30
2023-04-16T07:23:34.587Z,17.70
2023-04-16T07:26:21.378Z,13.33
2023-04-16T07:29:08.574Z,14.83
2023-04-16T07:31:55.529Z,17.60
2023-04-16T07:34:41.993Z,13.83
2023-04-16T07:37:28.425Z,15.07
2023-04-16T07:40:14.845Z,13.50
2023-04-16T07:43:01.587Z,12.50
2023-04-16T07:45:48.379Z,14.33
2023-04-16T07:48:34.640Z,16.77
2023-04-16T07:51:20.857Z,29.10
2023-04-16T07:54:07.234Z,23.67
2023-04-16T07:56:53.434Z,15.00
2023-04-16T07:59:40.006Z,13.33
2023-04-16T08:02:26.546Z,20.40
2023-04-16T08:05:13.321Z,16.50
2023-04-16T08:07:59.877Z,17.07
2023-04-16T08:10:46.320Z,13.60
2023-04-16T08:13:33.631Z,16.40
2023-04-16T08:16:20.486Z,12.03
2023-04-16T08:19:07.513Z,12.87
2023-04-16T08:21:54.418Z,12.37
2023-04-16T08:24:40.860Z,15.27
2023-04-16T08:27:27.188Z,10.97
2023-04-16T08:30:13.494Z,12.60
2023-04-16T08:33:00.195Z,13.87
2023-04-16T08:35:47.045Z,13.93
2023-04-16T08:38:33.616Z,15.17
2023-04-16T08:41:22.261Z,11.27
2023-04-16T08:44:11.873Z,13.43
2023-04-16T08:46:59.652Z,21.33
2023-04-16T08:49:46.238Z,26.83
2023-04-16T08:52:34.209Z,16.33
2023-04-16T08:55:29.354Z,27.43
2023-04-16T08:58:19.909Z,17.77
2023-04-16T09:01:09.737Z,12.63
2023-04-16T09:03:56.829Z,14.20
2023-04-16T09:06:44.162Z,12.93
2023-04-16T09:09:33.406Z,14.10
2023-04-16T09:12:24.044Z,15.87
2023-04-16T09:15:12.192Z,14.83
2023-04-16T09:17:59.043Z,15.50
2023-04-16T09:20:45.963Z,16.70
2023-04-16T09:23:32.495Z,12.80
2023-04-16T09:26:20.188Z,13.67
2023-04-16T09:29:06.751Z,13.00
2023-04-16T09:32:04.391Z,13.30
2023-04-16T09:35:01.834Z,12.53
2023-04-16T09:37:57.273Z,15.03
2023-04-16T09:40:44.029Z,10.30
2023-04-16T09:43:31.905Z,13.37
2023-04-16T09:46:18.472Z,11.97
2023-04-16T09:49:09.453Z,14.60
2023-04-16T09:51:57.092Z,11.63
2023-04-16T09:54:51.746Z,15.43
2023-04-16T09:57:38.868Z,13.37
2023-04-16T10:00:25.522Z,12.90
2023-04-16T10:03:12.294Z,13.57
2023-04-16T10:06:09.203Z,14.80
2023-04-16T10:08:58.443Z,11.37
2023-04-16T10:11:45.895Z,12.80
2023-04-16T10:14:33.731Z,13.03
2023-04-16T10:17:21.502Z,14.67
2023-04-16T10:20:08.695Z,13.43
2023-04-16T10:22:56.053Z,15.73
2023-04-16T10:25:43.102Z,12.87
2023-04-16T10:28:30.294Z,13.70
2023-04-16T10:31:17.774Z,13.53
2023-04-16T10:34:06.566Z,13.17
2023-04-16T10:36:54.173Z,13.10
2023-04-16T10:39:40.350Z,12.17
2023-04-16T10:42:27.440Z,14.33
2023-04-16T10:45:14.038Z,14.00
2023-04-16T10:48:05.132Z,12.60
2023-04-16T10:50:58.334Z,21.73
2023-04-16T10:53:44.561Z,19.63
2023-04-16T10:56:36.037Z,15.97
2023-04-16T10:59:23.825Z,14.47
2023-04-16T11:02:18.837Z,12.77
2023-04-16T11:05:06.586Z,11.67
2023-04-16T11:07:53.267Z,10.50
2023-04-16T11:10:39.741Z,9.97
2023-04-16T11:13:26.587Z,10.50
2023-04-16T11:16:14.706Z,10.03
2023-04-16T11:19:01.849Z,9.53
2023-04-16T11:21:49.152Z,18.53
2023-04-16T11:24:36.098Z,13.87
2023-04-16T11:27:23.788Z,10.83
2023-04-16T11:30:10.499Z,10.00
2023-04-16T11:32:57.039Z,11.17
2023-04-16T11:35:45.894Z,8.80
2023-04-16T11:38:36.703Z,11.57
2023-04-16T11:41:23.136Z,8.33
2023-04-16T11:44:27.302Z,10.53
2023-04-16T11:47:13.790Z,8.77
2023-04-16T11:50:22.691Z,8.40
2023-04-16T11:53:09.360Z,9.13
2023-04-16T11:55:55.658Z,15.43
2023-04-16T11:58:43.129Z,5.93
2023-04-16T12:01:30.148Z,12.10
2023-04-16T12:04:18.806Z,9.57
2023-04-16T12:07:14.881Z,7.60
2023-04-16T12:10:08.406Z,10.83
2023-04-16T12:12:55.934Z,8.07
2023-04-16T12:15:47.469Z,8.80
2023-04-16T12:18:34.134Z,11.40
2023-04-16T12:21:20.538Z,11.37
2023-04-16T12:24:08.242Z,9.53
2023-04-16T12:27:03.023Z,6.90
2023-04-16T12:30:03.843Z,8.17
2023-04-16T12:32:52.512Z,8.40
2023-04-16T12:35:41.486Z,8.20
2023-04-16T12:38:28.025Z,9.17
2023-04-16T12:41:14.128Z,9.43
2023-04-16T12:44:09.247Z,11.03
2023-04-16T12:46:55.744Z,11.63
2023-04-16T12:49:42.058Z,15.17
2023-04-16T12:52:28.387Z,9.87
2023-04-16T12:55:14.907Z,12.20
2023-04-16T12:58:01.547Z,10.23
2023-04-16T13:00:47.942Z,9.43
2023-04-16T13:03:37.112Z,10.27
2023-04-16T13:06:23.847Z,10.40
2023-04-16T13:09:10.372Z,11.07
2023-04-16T13:11:56.788Z,18.27
2023-04-16T13:14:44.962Z,14.13
2023-04-16T13:17:31.861Z,13.20
2023-04-16T13:20:18.361Z,9.73
2023-04-16T13:23:05.130Z,12.90
2023-04-16T13:25:51.693Z,11.93
2023-04-16T13:28:38.124Z,10.53
2023-04-16T13:31:24.550Z,12.23
2023-04-16T13:34:11.536Z,13.33
2023-04-16T13:36:58.123Z,27.37
2023-04-16T13:39:45.159Z,28.07
2023-04-16T13:42:32.382Z,25.33
2023-04-16T13:45:20.441Z,16.00
2023-04-16T13:48:06.981Z,20.33
2023-04-16T13:50:53.263Z,33.07
2023-04-16T13:53:39.605Z,26.07
2023-04-16T13:56:26.013Z,24.23
2023-04-16T13:59:12.771Z,19.87
2023-04-16T14:01:59.473Z,18.13
2023-04-16T14:04:46.159Z,16.43
2023-04-16T14:07:32.590Z,18.43
2023-04-16T14:10:19.361Z,13.73
2023-04-16T14:13:05.699Z,15.60
2023-04-16T14:15:55.757Z,15.77
2023-04-16T14:18:42.416Z,20.87
2023-04-16T14:21:28.785Z,18.93
2023-04-16T14:24:15.377Z,20.20
2023-04-16T14:27:02.461Z,18.17
2023-04-16T14:29:48.866Z,27.47
2023-04-16T14:32:36.158Z,19.30
2023-04-16T14:35:23.111Z,26.70
2023-04-16T14:38:09.348Z,19.83
2023-04-16T14:40:55.829Z,18.27
2023-04-16T14:43:42.399Z,20.67
2023-04-16T14:46:28.903Z,27.00
2023-04-16T14:49:15.653Z,24.00
2023-04-16T14:52:02.667Z,15.97
2023-04-16T14:54:48.906Z,21.93
2023-04-16T14:57:35.371Z,23.43
2023-04-16T15:00:21.855Z,19.33
2023-04-16T15:03:08.209Z,24.57
2023-04-16T15:05:55.464Z,28.37
2023-04-16T15:08:42.458Z,29.77
2023-04-16T15:11:28.867Z,22.77
2023-04-16T15:14:15.171Z,20.10
2023-04-16T15:17:01.470Z,24.03
2023-04-16T15:19:48.131Z,23.97
2023-04-16T15:22:34.493Z,23.30
2023-04-16T15:25:21.114Z,22.10
2023-04-16T15:28:07.261Z,29.70
2023-04-16T15:30:54.039Z,23.37
2023-04-16T15:33:40.869Z,25.03
2023-04-16T15:36:27.156Z,18.37
2023-04-16T15:39:13.554Z,20.67
2023-04-16T15:42:01.780Z,25.03
2023-04-16T15:44:49.165Z,21.43
2023-04-16T15:47:36.224Z,25.60
2023-04-16T15:50:22.773Z,24.17
2023-04-16T15:53:09.037Z,24.30
2023-04-16T15:55:55.685Z,19.10
2023-04-16T15:58:42.074Z,24.00
2023-04-16T16:01:28.269Z,22.90
2023-04-16T16:04:14.678Z,23.53
2023-04-16T16:07:02.764Z,21.33
2023-04-16T16:09:48.943Z,27.87
2023-04-16T16:12:35.748Z,24.13
2023-04-16T16:15:22.393Z,25.33
2023-04-16T16:18:08.860Z,24.10
2023-04-16T16:20:58.546Z,20.93
2023-04-16T16:23:45.122Z,20.03
2023-04-16T16:26:32.007Z,23.90
2023-04-16T16:29:18.533Z,20.30
2023-04-16T16:32:05.396Z,21.53
2023-04-16T16:34:51.825Z,23.33
2023-04-16T16:37:38.427Z,24.83
2023-04-16T16:40:25.143Z,25.40
2023-04-16T16:43:11.430Z,27.00
2023-04-16T16:45:57.992Z,23.80
2023-04-16T16:48:44.631Z,25.67
2023-04-16T16:51:33.498Z,42.77
2023-04-16T16:54:19.761Z,26.67
2023-04-16T16:57:06.498Z,25.23
2023-04-16T16:59:52.794Z,25.60
2023-04-16T17:02:39.492Z,27.47
2023-04-16T17:05:26.197Z,27.73
2023-04-16T17:08:13.827Z,29.37
2023-04-16T17:11:03.287Z,30.67
2023-04-16T17:13:49.533Z,22.03
2023-04-16T17:16:36.451Z,31.07
2023-04-16T17:19:22.763Z,26.20
2023-04-16T17:22:09.157Z,22.10
2023-04-16T17:24:55.570Z,27.43
2023-04-16T17:27:41.953Z,26.23
2023-04-16T17:30:31.043Z,26.93
2023-04-16T17:33:17.912Z,29.27
2023-04-16T17:36:04.310Z,27.83
2023-04-16T17:38:50.988Z,27.57
2023-04-16T17:41:37.219Z,24.10
2023-04-16T17:44:25.644Z,26.77
2023-04-16T17:47:12.446Z,25.40
2023-04-16T17:49:58.603Z,23.80
2023-04-16T17:52:47.171Z,27.33
2023-04-16T17:55:33.608Z,25.47
2023-04-16T17:58:20.386Z,26.97
2023-04-16T18:01:06.716Z,38.80
2023-04-16T18:03:53.202Z,24.23
2023-04-16T18:06:39.889Z,27.67
2023-04-16T18:09:26.569Z,28.63
2023-04-16T18:12:12.824Z,30.17
2023-04-16T18:14:59.314Z,30.63
2023-04-16T18:17:46.145Z,27.70
2023-04-16T18:20:32.580Z,29.40
2023-04-16T18:23:19.429Z,36.20
2023-04-16T18:26:08.335Z,33.23
2023-04-16T18:28:55.859Z,32.60
2023-04-16T18:31:42.910Z,38.13
2023-04-16T18:34:29.734Z,32.50
2023-04-16T18:37:16.177Z,30.97
2023-04-16T18:40:05.682Z,34.57
2023-04-16T18:42:52.091Z,34.90
2023-04-16T18:45:40.002Z,34.27
2023-04-16T18:48:26.349Z,32.93
2023-04-16T18:51:14.294Z,33.73
2023-04-16T18:54:02.397Z,31.53
2023-04-16T18:56:48.838Z,27.93
2023-04-16T18:59:35.112Z,31.17
2023-04-16T19:02:21.416Z,36.30
2023-04-16T19:05:08.919Z,32.13
2023-04-16T19:07:55.610Z,32.97
2023-04-16T19:10:42.239Z,36.83
2023-04-16T19:13:30.401Z,38.07
2023-04-16T19:16:16.998Z,29.03
2023-04-16T19:19:03.549Z,31.30
2023-04-16T19:21:50.107Z,34.40
2023-04-16T19:24:36.331Z,34.77
2023-04-16T19:27:23.000Z,32.53
2023-04-16T19:30:09.791Z,27.20
2023-04-16T19:32:56.167Z,26.73
2023-04-16T19:35:43.225Z,33.43
2023-04-16T19:38:31.855Z,35.93
2023-04-16T19:41:18.219Z,30.60
2023-04-16T19:44:05.004Z,35.20
2023-04-16T19:46:51.895Z,30.07
2023-04-16T19:49:38.126Z,32.73
2023-04-16T19:52:24.948Z,31.63
2023-04-16T19:55:11.671Z,32.63
2023-04-16T19:57:59.568Z,31.53
2023-04-16T20:00:47.210Z,30.37
2023-04-16T20:03:33.555Z,28.77
2023-04-16T20:06:20.178Z,28.53
2023-04-16T20:09:06.518Z,30.80
2023-04-16T20:11:52.710Z,27.47
2023-04-16T20:14:38.997Z,32.07
2023-04-16T20:17:26.025Z,30.57
2023-04-16T20:20:15.080Z,30.13
2023-04-16T20:23:01.931Z,31.93
2023-04-16T20:25:48.624Z,30.47
2023-04-16T20:28:36.135Z,27.67
2023-04-16T20:31:23.023Z,28.97
2023-04-16T20:34:09.467Z,30.43
2023-04-16T20:36:55.911Z,28.30
2023-04-16T20:39:42.601Z,29.57
2023-04-16T20:42:32.080Z,26.17
2023-04-16T20:45:18.792Z,29.97
2023-04-16T20:48:05.527Z,30.00
2023-04-16T20:50:58.416Z,26.20
2023-04-16T20:53:45.499Z,29.30
2023-04-16T20:56:31.844Z,27.83
2023-04-16T20:59:18.180Z,28.37
2023-04-16T21:02:04.898Z,29.70
2023-04-16T21:04:51.217Z,22.80
2023-04-16T21:07:37.790Z,29.03
2023-04-16T21:10:24.162Z,28.03
2023-04-16T21:13:13.385Z,29.77
2023-04-16T21:15:59.675Z,25.70
2023-04-16T21:18:46.124Z,24.53
2023-04-16T21:21:33.064Z,23.70
2023-04-16T21:24:19.244Z,28.50
2023-04-16T21:27:05.830Z,28.67
2023-04-16T21:29:52.683Z,26.00
2023-04-16T21:32:39.206Z,30.07
2023-04-16T21:35:26.000Z,29.43
2023-04-16T21:38:12.512Z,31.67
2023-04-16T21:40:59.227Z,25.43
2023-04-16T21:43:45.772Z,26.40
2023-04-16T21:46:32.028Z,30.37
2023-04-16T21:49:18.696Z,37.33
2023-04-16T21:52:05.328Z,29.33
2023-04-16T21:54:51.942Z,29.50
2023-04-16T21:57:38.293Z,25.70
2023-04-16T22:00:25.001Z,27.57
2023-04-16T22:03:12.383Z,26.70
2023-04-16T22:06:01.412Z,28.40
2023-04-16T22:08:49.793Z,27.23
2023-04-16T22:11:36.532Z,32.00
2023-04-16T22:14:22.630Z,29.17
2023-04-16T22:17:09.318Z,23.93
2023-04-16T22:19:55.650Z,29.00
2023-04-16T22:22:42.871Z,28.00
2023-04-16T22:25:29.418Z,30.37
2023-04-16T22:28:16.125Z,28.80
2023-04-16T22:31:02.393Z,31.47
2023-04-16T22:33:48.604Z,30.87
2023-04-16T22:36:35.396Z,32.30
2023-04-16T22:39:21.632Z,30.80
2023-04-16T22:42:08.217Z,31.30
2023-04-16T22:44:54.821Z,30.37
2023-04-16T22:47:41.687Z,32.33
2023-04-16T22:50:28.498Z,34.90
2023-04-16T22:53:14.780Z,30.40
2023-04-16T22:56:01.276Z,29.83
2023-04-16T22:58:50.740Z,27.87
2023-04-16T23:01:37.063Z,30.20
2023-04-16T23:04:23.669Z,31.20
2023-04-16T23:07:10.433Z,33.83
2023-04-16T23:09:57.006Z,32.13
2023-04-16T23:12:43.239Z,34.80
2023-04-16T23:15:29.920Z,31.47
2023-04-16T23:18:16.204Z,32.20
2023-04-16T23:21:02.394Z,36.20
2023-04-16T23:23:48.778Z,35.90
2023-04-16T23:26:35.081Z,33.07
2023-04-16T23:29:21.424Z,31.47
2023-04-16T23:32:08.109Z,31.50
2023-04-16T23:34:54.402Z,32.17
2023-04-16T23:37:40.948Z,35.43
2023-04-16T23:40:27.275Z,36.23
2023-04-16T23:43:13.706Z,36.23
2023-04-16T23:46:00.417Z,34.50
2023-04-16T23:48:46.925Z,31.27
2023-04-16T23:51:33.506Z,35.03
2023-04-16T23:54:21.390Z,34.27
2023-04-16T23:57:07.922Z,30.53
2023-04-16T23:59:54.263Z,35.67
